createdAt,value
2023-04-23T06:21:04.635Z,100.00
2023-04-23T06:31:04.637Z,100.00
2023-04-23T06:41:04.725Z,100.00
2023-04-23T06:51:04.783Z,100.00
2023-04-23T07:01:04.702Z,100.00
2023-04-23T07:11:04.749Z,100.00
2023-04-23T07:21:04.595Z,100.00
2023-04-23T07:31:04.626Z,100.00
2023-04-23T07:41:04.732Z,100.00
2023-04-23T07:51:04.713Z,100.00
2023-04-23T08:01:04.866Z,100.00
2023-04-23T08:11:04.734Z,100.00
2023-04-23T08:21:04.887Z,100.00
2023-04-23T08:31:15.104Z,100.00
2023-04-23T08:41:04.963Z,100.00
2023-04-23T08:51:04.821Z,98.46
2023-04-23T09:01:04.913Z,98.00
2023-04-23T09:11:04.924Z,100.00
2023-04-23T09:21:04.975Z,87.65
2023-04-23T09:31:04.921Z,82.76
2023-04-23T09:41:04.802Z,83.50
2023-04-23T09:51:04.782Z,78.31
2023-04-23T10:01:05.099Z,77.71
2023-04-23T10:11:20.144Z,73.42
2023-04-23T10:21:04.979Z,73.53
2023-04-23T10:31:04.889Z,70.06
2023-04-23T10:41:04.900Z,69.02
2023-04-23T10:51:30.584Z,64.82
2023-04-23T11:01:04.930Z,66.33
2023-04-23T11:11:04.904Z,61.82
2023-04-23T11:21:04.754Z,62.90
2023-04-23T11:31:04.934Z,60.74
2023-04-23T11:41:04.887Z,60.69
2023-04-23T11:51:05.165Z,60.42
2023-04-23T12:01:05.123Z,61.59
2023-04-23T12:11:05.084Z,57.62
2023-04-23T12:21:04.950Z,59.95
2023-04-23T12:31:05.237Z,55.84
2023-04-23T12:41:04.992Z,58.86
2023-04-23T12:51:05.250Z,60.79
2023-04-23T13:01:04.979Z,57.55
2023-04-23T13:11:04.993Z,59.50
2023-04-23T13:21:05.245Z,69.48
2023-04-23T13:31:05.115Z,64.28
2023-04-23T13:41:05.278Z,59.65
2023-04-23T13:51:13.598Z,62.22
2023-04-23T14:01:05.095Z,62.58
2023-04-23T14:11:05.190Z,69.68
2023-04-23T14:21:05.134Z,72.31
2023-04-23T14:31:05.311Z,73.44
2023-04-23T14:41:05.155Z,84.48
2023-04-23T14:51:05.125Z,100.00
2023-04-23T15:01:06.942Z,100.00
2023-04-23T15:11:05.272Z,100.00
2023-04-23T15:21:05.328Z,100.00
2023-04-23T15:31:05.192Z,100.00
2023-04-23T15:41:05.473Z,99.95
2023-04-23T15:51:05.345Z,88.39
2023-04-23T16:01:05.394Z,84.44
2023-04-23T16:11:05.243Z,80.58
2023-04-23T16:21:05.420Z,83.08
2023-04-23T16:31:05.340Z,83.73
2023-04-23T16:41:05.469Z,83.01
2023-04-23T16:51:05.429Z,85.14
2023-04-23T17:01:05.296Z,80.29
2023-04-23T17:11:05.350Z,82.93
2023-04-23T17:21:05.419Z,90.06
2023-04-23T17:31:05.681Z,94.75
2023-04-23T17:41:05.534Z,98.50
2023-04-23T17:51:05.604Z,100.00
2023-04-23T18:01:05.689Z,100.00
2023-04-23T18:11:05.442Z,100.00
2023-04-23T18:21:05.387Z,100.00
2023-04-23T18:31:05.731Z,100.00
2023-04-23T18:41:05.732Z,100.00
2023-04-23T18:51:05.944Z,100.00
2023-04-23T19:01:05.867Z,100.00
2023-04-23T19:11:06.289Z,100.00
2023-04-23T19:21:06.103Z,100.00
